sensor_id;sensor_type;location;lat;lon;timestamp;pressure;altitude;pressure_sealevel;temperature;humidity
6218;BME280;3142;48.206;11.550;2022-08-27T00:02:19;95478.19;;;21.45;74.76
6218;BME280;3142;48.206;11.550;2022-08-27T00:04:47;95469.88;;;21.56;74.46
6218;BME280;3142;48.206;11.550;2022-08-27T00:07:14;95473.31;;;21.62;74.39
6218;BME280;3142;48.206;11.550;2022-08-27T00:09:40;95471.72;;;21.66;74.59
6218;BME280;3142;48.206;11.550;2022-08-27T00:12:08;95469.97;;;21.41;74.95
6218;BME280;3142;48.206;11.550;2022-08-27T00:14:36;95465.78;;;21.25;75.78
6218;BME280;3142;48.206;11.550;2022-08-27T00:17:03;95467.88;;;21.23;76.20
6218;BME280;3142;48.206;11.550;2022-08-27T00:19:30;95475.56;;;21.40;75.60
6218;BME280;3142;48.206;11.550;2022-08-27T00:21:58;95476.84;;;21.52;75.35
6218;BME280;3142;48.206;11.550;2022-08-27T00:24:24;95479.97;;;21.59;75.37
6218;BME280;3142;48.206;11.550;2022-08-27T00:26:51;95466.91;;;21.63;75.27
6218;BME280;3142;48.206;11.550;2022-08-27T00:29:18;95465.31;;;21.67;75.47
6218;BME280;3142;48.206;11.550;2022-08-27T00:31:44;95472.22;;;21.68;75.01
6218;BME280;3142;48.206;11.550;2022-08-27T00:34:11;95484.22;;;21.66;74.78
6218;BME280;3142;48.206;11.550;2022-08-27T00:36:37;95489.03;;;21.58;74.95
6218;BME280;3142;48.206;11.550;2022-08-27T00:39:05;95494.97;;;21.45;75.41
6218;BME280;3142;48.206;11.550;2022-08-27T00:41:31;95502.47;;;21.33;75.95
6218;BME280;3142;48.206;11.550;2022-08-27T00:44:00;95506.50;;;21.25;76.69
6218;BME280;3142;48.206;11.550;2022-08-27T00:46:29;95499.56;;;21.19;77.20
6218;BME280;3142;48.206;11.550;2022-08-27T00:48:59;95494.53;;;21.13;77.78
6218;BME280;3142;48.206;11.550;2022-08-27T00:51:27;95488.69;;;21.06;77.93
6218;BME280;3142;48.206;11.550;2022-08-27T00:53:56;95488.69;;;21.06;78.11
6218;BME280;3142;48.206;11.550;2022-08-27T00:56:27;95487.34;;;21.08;78.30
6218;BME280;3142;48.206;11.550;2022-08-27T00:58:54;95491.06;;;21.07;78.35
6218;BME280;3142;48.206;11.550;2022-08-27T01:01:25;95483.13;;;21.02;77.83
6218;BME280;3142;48.206;11.550;2022-08-27T01:03:54;95473.53;;;21.01;77.79
6218;BME280;3142;48.206;11.550;2022-08-27T01:06:22;95472.22;;;20.93;78.24
6218;BME280;3142;48.206;11.550;2022-08-27T01:08:54;95471.47;;;20.88;78.40
6218;BME280;3142;48.206;11.550;2022-08-27T01:11:24;95478.38;;;20.79;78.67
6218;BME280;3142;48.206;11.550;2022-08-27T01:13:52;95482.66;;;20.75;78.45
6218;BME280;3142;48.206;11.550;2022-08-27T01:16:21;95477.34;;;20.75;78.68
6218;BME280;3142;48.206;11.550;2022-08-27T01:18:48;95473.59;;;20.76;78.67
6218;BME280;3142;48.206;11.550;2022-08-27T01:21:23;95478.13;;;20.75;78.76
6218;BME280;3142;48.206;11.550;2022-08-27T01:23:57;95478.38;;;20.79;78.70
6218;BME280;3142;48.206;11.550;2022-08-27T01:26:27;95481.56;;;20.86;78.61
6218;BME280;3142;48.206;11.550;2022-08-27T01:28:54;95479.16;;;20.89;78.77
6218;BME280;3142;48.206;11.550;2022-08-27T01:31:20;95476.22;;;20.91;78.44
6218;BME280;3142;48.206;11.550;2022-08-27T01:33:55;95473.81;;;20.94;78.31
6218;BME280;3142;48.206;11.550;2022-08-27T01:36:22;95471.16;;;20.94;78.47
6218;BME280;3142;48.206;11.550;2022-08-27T01:38:48;95473.28;;;20.97;78.59
6218;BME280;3142;48.206;11.550;2022-08-27T01:41:17;95475.97;;;20.97;78.58
6218;BME280;3142;48.206;11.550;2022-08-27T01:43:46;95473.81;;;20.99;78.34
6218;BME280;3142;48.206;11.550;2022-08-27T01:46:13;95473.03;;;20.99;78.28
6218;BME280;3142;48.206;11.550;2022-08-27T01:48:40;95476.72;;;21.03;78.45
6218;BME280;3142;48.206;11.550;2022-08-27T01:51:06;95479.13;;;21.05;78.23
6218;BME280;3142;48.206;11.550;2022-08-27T01:53:34;95482.06;;;21.03;78.47
6218;BME280;3142;48.206;11.550;2022-08-27T01:56:00;95485.50;;;21.04;78.34
6218;BME280;3142;48.206;11.550;2022-08-27T01:58:28;95482.06;;;21.03;77.99
6218;BME280;3142;48.206;11.550;2022-08-27T02:00:59;95479.13;;;21.05;78.07
6218;BME280;3142;48.206;11.550;2022-08-27T02:03:28;95479.63;;;21.07;78.27
6218;BME280;3142;48.206;11.550;2022-08-27T02:05:54;95473.78;;;21.05;78.08
6218;BME280;3142;48.206;11.550;2022-08-27T02:08:21;95472.75;;;21.00;78.27
6218;BME280;3142;48.206;11.550;2022-08-27T02:10:48;95469.28;;;21.00;78.14
6218;BME280;3142;48.206;11.550;2022-08-27T02:13:15;95469.56;;;20.98;78.28
6218;BME280;3142;48.206;11.550;2022-08-27T02:15:43;95470.63;;;21.03;78.31
6218;BME280;3142;48.206;11.550;2022-08-27T02:18:12;95472.47;;;21.02;77.94
6218;BME280;3142;48.206;11.550;2022-08-27T02:20:40;95470.09;;;21.00;78.30
6218;BME280;3142;48.206;11.550;2022-08-27T02:23:06;95470.63;;;20.92;78.42
6218;BME280;3142;48.206;11.550;2022-08-27T02:25:33;95471.47;;;20.88;78.20
6218;BME280;3142;48.206;11.550;2022-08-27T02:27:59;95462.94;;;20.86;78.28
6218;BME280;3142;48.206;11.550;2022-08-27T02:30:28;95463.47;;;20.83;78.47
6218;BME280;3142;48.206;11.550;2022-08-27T02:32:56;95460.00;;;20.82;78.60
6218;BME280;3142;48.206;11.550;2022-08-27T02:35:24;95458.97;;;20.83;78.69
6218;BME280;3142;48.206;11.550;2022-08-27T02:37:51;95459.50;;;20.80;78.97
6218;BME280;3142;48.206;11.550;2022-08-27T02:40:20;95456.03;;;20.80;78.75
6218;BME280;3142;48.206;11.550;2022-08-27T02:42:47;95451.53;;;20.85;78.89
6218;BME280;3142;48.206;11.550;2022-08-27T02:45:16;95453.66;;;20.83;78.84
6218;BME280;3142;48.206;11.550;2022-08-27T02:47:43;95462.16;;;20.85;78.62
6218;BME280;3142;48.206;11.550;2022-08-27T02:50:09;95458.16;;;20.88;78.62
6218;BME280;3142;48.206;11.550;2022-08-27T02:52:37;95462.94;;;20.91;78.74
6218;BME280;3142;48.206;11.550;2022-08-27T02:55:05;95462.38;;;20.94;78.72
6218;BME280;3142;48.206;11.550;2022-08-27T02:57:31;95464.53;;;20.97;78.38
6218;BME280;3142;48.206;11.550;2022-08-27T02:59:58;95466.63;;;21.00;78.66
6218;BME280;3142;48.206;11.550;2022-08-27T03:02:25;95466.63;;;21.00;78.98
6218;BME280;3142;48.206;11.550;2022-08-27T03:04:51;95463.16;;;21.05;78.84
6218;BME280;3142;48.206;11.550;2022-08-27T03:07:18;95468.75;;;21.03;78.69
6218;BME280;3142;48.206;11.550;2022-08-27T03:09:49;95471.16;;;20.99;79.16
6218;BME280;3142;48.206;11.550;2022-08-27T03:12:15;95469.03;;;21.02;79.31
6218;BME280;3142;48.206;11.550;2022-08-27T03:14:42;95471.44;;;20.98;79.32
6218;BME280;3142;48.206;11.550;2022-08-27T03:17:08;95469.56;;;20.93;79.73
6218;BME280;3142;48.206;11.550;2022-08-27T03:19:52;95475.41;;;21.00;79.37
6218;BME280;3142;48.206;11.550;2022-08-27T03:22:19;95474.59;;;21.05;79.27
6218;BME280;3142;48.206;11.550;2022-08-27T03:24:46;95482.81;;;21.14;79.04
6218;BME280;3142;48.206;11.550;2022-08-27T03:27:14;95471.09;;;21.15;79.12
6218;BME280;3142;48.206;11.550;2022-08-27T03:29:40;95476.69;;;21.08;79.10
6218;BME280;3142;48.206;11.550;2022-08-27T03:32:06;95473.81;;;20.94;79.98
6218;BME280;3142;48.206;11.550;2022-08-27T03:34:33;95474.88;;;20.93;80.08
6218;BME280;3142;48.206;11.550;2022-08-27T03:36:59;95477.53;;;21.04;79.42
6218;BME280;3142;48.206;11.550;2022-08-27T03:39:26;95486.28;;;21.09;78.96
6218;BME280;3142;48.206;11.550;2022-08-27T03:41:52;95480.19;;;21.04;79.40
6218;BME280;3142;48.206;11.550;2022-08-27T03:44:21;95476.69;;;21.08;78.71
6218;BME280;3142;48.206;11.550;2022-08-27T03:46:47;95475.69;;;20.99;79.19
6218;BME280;3142;48.206;11.550;2022-08-27T03:49:15;95470.88;;;21.01;79.07
6218;BME280;3142;48.206;11.550;2022-08-27T03:51:41;95472.75;;;21.00;78.95
6218;BME280;3142;48.206;11.550;2022-08-27T03:54:08;95470.09;;;21.00;78.86
6218;BME280;3142;48.206;11.550;2022-08-27T03:56:34;95467.94;;;21.03;78.63
6218;BME280;3142;48.206;11.550;2022-08-27T03:59:03;95473.53;;;21.01;79.05
6218;BME280;3142;48.206;11.550;2022-08-27T04:01:31;95464.75;;;21.06;78.45
6218;BME280;3142;48.206;11.550;2022-08-27T04:03:58;95471.94;;;21.05;78.37
6218;BME280;3142;48.206;11.550;2022-08-27T04:06:24;95461.03;;;21.02;78.33
6218;BME280;3142;48.206;11.550;2022-08-27T04:08:52;95469.28;;;21.00;78.04
6218;BME280;3142;48.206;11.550;2022-08-27T04:11:18;95463.19;;;20.94;78.07
6218;BME280;3142;48.206;11.550;2022-08-27T04:13:46;95461.84;;;20.92;78.08
6218;BME280;3142;48.206;11.550;2022-08-27T04:16:12;95472.53;;;20.87;78.45
6218;BME280;3142;48.206;11.550;2022-08-27T04:18:40;95473.88;;;20.84;78.69
6218;BME280;3142;48.206;11.550;2022-08-27T04:21:09;95472.78;;;20.90;79.02
6218;BME280;3142;48.206;11.550;2022-08-27T04:23:37;95477.81;;;20.92;78.92
6218;BME280;3142;48.206;11.550;2022-08-27T04:26:04;95475.44;;;20.90;79.13
6218;BME280;3142;48.206;11.550;2022-08-27T04:28:31;95481.78;;;20.94;79.03
6218;BME280;3142;48.206;11.550;2022-08-27T04:30:57;95479.41;;;20.98;79.56
6218;BME280;3142;48.206;11.550;2022-08-27T04:33:24;95484.19;;;21.01;79.41
6218;BME280;3142;48.206;11.550;2022-08-27T04:35:57;95485.25;;;21.00;79.00
6218;BME280;3142;48.206;11.550;2022-08-27T04:38:24;95483.38;;;20.95;79.08
6218;BME280;3142;48.206;11.550;2022-08-27T04:40:52;95490.06;;;20.93;79.44
6218;BME280;3142;48.206;11.550;2022-08-27T04:43:36;95483.66;;;20.94;78.92
6218;BME280;3142;48.206;11.550;2022-08-27T04:46:02;95482.59;;;20.95;78.93
6218;BME280;3142;48.206;11.550;2022-08-27T04:48:29;95488.97;;;20.94;78.70
6218;BME280;3142;48.206;11.550;2022-08-27T04:50:57;95487.38;;;20.93;78.50
6218;BME280;3142;48.206;11.550;2022-08-27T04:53:23;95486.88;;;20.91;78.67
6218;BME280;3142;48.206;11.550;2022-08-27T04:55:51;95482.63;;;20.90;78.77
6218;BME280;3142;48.206;11.550;2022-08-27T04:58:19;95485.31;;;20.85;78.67
6218;BME280;3142;48.206;11.550;2022-08-27T05:00:48;95494.84;;;20.81;79.09
6218;BME280;3142;48.206;11.550;2022-08-27T05:03:17;95495.94;;;20.80;79.24
6218;BME280;3142;48.206;11.550;2022-08-27T05:05:45;95494.34;;;20.79;79.38
6218;BME280;3142;48.206;11.550;2022-08-27T05:08:13;95498.59;;;20.69;79.57
6218;BME280;3142;48.206;11.550;2022-08-27T05:10:41;95495.16;;;20.64;79.85
6218;BME280;3142;48.206;11.550;2022-08-27T05:13:08;95493.03;;;20.66;79.92
6218;BME280;3142;48.206;11.550;2022-08-27T05:15:35;95491.16;;;20.66;79.88
6218;BME280;3142;48.206;11.550;2022-08-27T05:18:01;95489.31;;;20.62;80.49
6218;BME280;3142;48.206;11.550;2022-08-27T05:20:29;95494.91;;;20.60;80.60
6218;BME280;3142;48.206;11.550;2022-08-27T05:22:56;95491.72;;;20.53;81.12
6218;BME280;3142;48.206;11.550;2022-08-27T05:25:25;95495.44;;;20.52;81.12
6218;BME280;3142;48.206;11.550;2022-08-27T05:27:52;95490.13;;;20.52;81.31
6218;BME280;3142;48.206;11.550;2022-08-27T05:30:18;95487.97;;;20.54;81.04
6218;BME280;3142;48.206;11.550;2022-08-27T05:32:45;95499.41;;;20.55;81.20
6218;BME280;3142;48.206;11.550;2022-08-27T05:35:11;95497.59;;;20.45;81.39
6218;BME280;3142;48.206;11.550;2022-08-27T05:37:38;95493.59;;;20.48;81.39
6218;BME280;3142;48.206;11.550;2022-08-27T05:40:06;95493.31;;;20.49;81.70
6218;BME280;3142;48.206;11.550;2022-08-27T05:42:34;95490.66;;;20.49;81.44
6218;BME280;3142;48.206;11.550;2022-08-27T05:45:00;95488.25;;;20.53;81.00
6218;BME280;3142;48.206;11.550;2022-08-27T05:47:26;95483.72;;;20.53;81.27
6218;BME280;3142;48.206;11.550;2022-08-27T05:49:53;95490.94;;;20.48;81.55
6218;BME280;3142;48.206;11.550;2022-08-27T05:52:20;95485.63;;;20.48;81.53
6218;BME280;3142;48.206;11.550;2022-08-27T05:54:47;95494.13;;;20.45;81.74
6218;BME280;3142;48.206;11.550;2022-08-27T05:57:13;95489.56;;;20.40;81.92
6218;BME280;3142;48.206;11.550;2022-08-27T05:59:41;95484.81;;;20.42;82.01
6218;BME280;3142;48.206;11.550;2022-08-27T06:02:25;95488.81;;;20.45;81.72
6218;BME280;3142;48.206;11.550;2022-08-27T06:04:52;95500.50;;;20.49;81.45
6218;BME280;3142;48.206;11.550;2022-08-27T06:07:19;95495.97;;;20.49;81.62
6218;BME280;3142;48.206;11.550;2022-08-27T06:09:46;95496.50;;;20.46;81.42
6218;BME280;3142;48.206;11.550;2022-08-27T06:12:12;95504.50;;;20.46;81.91
6218;BME280;3142;48.206;11.550;2022-08-27T06:14:40;95501.03;;;20.46;81.87
6218;BME280;3142;48.206;11.550;2022-08-27T06:17:07;95500.19;;;20.40;82.35
6218;BME280;3142;48.206;11.550;2022-08-27T06:19:33;95500.75;;;20.42;82.57
6218;BME280;3142;48.206;11.550;2022-08-27T06:22:00;95502.09;;;20.45;82.54
6218;BME280;3142;48.206;11.550;2022-08-27T06:24:27;95497.31;;;20.47;82.45
6218;BME280;3142;48.206;11.550;2022-08-27T06:26:54;95498.38;;;20.46;82.75
6218;BME280;3142;48.206;11.550;2022-08-27T06:29:21;95492.25;;;20.50;82.70
6218;BME280;3142;48.206;11.550;2022-08-27T06:31:50;95501.81;;;20.51;82.76
6218;BME280;3142;48.206;11.550;2022-08-27T06:34:19;95502.06;;;20.55;82.16
6218;BME280;3142;48.206;11.550;2022-08-27T06:36:45;95493.56;;;20.53;82.08
6218;BME280;3142;48.206;11.550;2022-08-27T06:39:12;95502.06;;;20.55;82.21
6218;BME280;3142;48.206;11.550;2022-08-27T06:41:41;95510.34;;;20.58;82.28
6218;BME280;3142;48.206;11.550;2022-08-27T06:44:08;95502.63;;;20.62;82.23
6218;BME280;3142;48.206;11.550;2022-08-27T06:46:36;95506.03;;;20.67;82.55
6218;BME280;3142;48.206;11.550;2022-08-27T06:49:04;95505.25;;;20.77;82.06
6218;BME280;3142;48.206;11.550;2022-08-27T06:51:32;95498.88;;;20.83;82.15
6218;BME280;3142;48.206;11.550;2022-08-27T06:54:02;95511.06;;;20.94;81.43
6218;BME280;3142;48.206;11.550;2022-08-27T06:56:29;95509.75;;;20.97;81.32
6218;BME280;3142;48.206;11.550;2022-08-27T06:58:58;95503.31;;;21.08;81.31
6218;BME280;3142;48.206;11.550;2022-08-27T07:01:27;95504.88;;;21.19;81.27
6218;BME280;3142;48.206;11.550;2022-08-27T07:03:55;95502.78;;;21.26;81.50
6218;BME280;3142;48.206;11.550;2022-08-27T07:06:25;95509.09;;;21.36;80.57
6218;BME280;3142;48.206;11.550;2022-08-27T07:08:52;95509.63;;;21.38;80.27
6218;BME280;3142;48.206;11.550;2022-08-27T07:11:18;95507.78;;;21.38;80.31
6218;BME280;3142;48.206;11.550;2022-08-27T07:13:46;95516.03;;;21.37;80.49
6218;BME280;3142;48.206;11.550;2022-08-27T07:16:18;95504.28;;;21.38;80.20
6218;BME280;3142;48.206;11.550;2022-08-27T07:18:46;95515.78;;;21.38;79.95
6218;BME280;3142;48.206;11.550;2022-08-27T07:21:14;95513.91;;;21.39;79.39
6218;BME280;3142;48.206;11.550;2022-08-27T07:23:41;95517.88;;;21.41;78.99
6218;BME280;3142;48.206;11.550;2022-08-27T07:26:09;95518.94;;;21.40;78.66
6218;BME280;3142;48.206;11.550;2022-08-27T07:28:36;95518.44;;;21.38;78.67
6218;BME280;3142;48.206;11.550;2022-08-27T07:31:04;95520.28;;;21.38;78.39
6218;BME280;3142;48.206;11.550;2022-08-27T07:33:30;95523.22;;;21.36;79.19
6218;BME280;3142;48.206;11.550;2022-08-27T07:35:57;95521.06;;;21.43;79.09
6218;BME280;3142;48.206;11.550;2022-08-27T07:38:23;95519.97;;;21.49;79.12
6218;BME280;3142;48.206;11.550;2022-08-27T07:40:51;95526.34;;;21.53;79.84
6218;BME280;3142;48.206;11.550;2022-08-27T07:43:17;95528.16;;;21.63;79.37
6218;BME280;3142;48.206;11.550;2022-08-27T07:46:01;95527.59;;;21.71;78.60
6218;BME280;3142;48.206;11.550;2022-08-27T07:50:57;95528.69;;;21.65;78.55
6218;BME280;3142;48.206;11.550;2022-08-27T07:53:24;95527.88;;;21.70;78.11
6218;BME280;3142;48.206;11.550;2022-08-27T07:55:52;95528.63;;;21.75;78.08
6218;BME280;3142;48.206;11.550;2022-08-27T07:58:18;95532.03;;;21.86;77.83
6218;BME280;3142;48.206;11.550;2022-08-27T08:00:45;95532.56;;;21.93;77.59
6218;BME280;3142;48.206;11.550;2022-08-27T08:03:11;95535.41;;;22.02;77.58
6218;BME280;3142;48.206;11.550;2022-08-27T08:05:41;95539.16;;;22.06;78.10
6218;BME280;3142;48.206;11.550;2022-08-27T08:08:08;95536.19;;;22.12;77.31
6218;BME280;3142;48.206;11.550;2022-08-27T08:10:34;95539.09;;;22.16;76.07
6218;BME280;3142;48.206;11.550;2022-08-27T08:13:03;95548.94;;;22.15;74.93
6218;BME280;3142;48.206;11.550;2022-08-27T08:15:29;95555.34;;;22.14;74.49
6218;BME280;3142;48.206;11.550;2022-08-27T08:17:56;95555.91;;;22.11;74.39
6218;BME280;3142;48.206;11.550;2022-08-27T08:20:22;95557.25;;;22.04;74.63
6218;BME280;3142;48.206;11.550;2022-08-27T08:22:49;95560.19;;;22.02;74.78
6218;BME280;3142;48.206;11.550;2022-08-27T08:25:16;95568.72;;;22.04;74.71
6218;BME280;3142;48.206;11.550;2022-08-27T08:27:42;95560.44;;;22.11;74.47
6218;BME280;3142;48.206;11.550;2022-08-27T08:30:11;95555.59;;;22.23;74.60
6218;BME280;3142;48.206;11.550;2022-08-27T08:32:37;95550.44;;;22.37;73.57
6218;BME280;3142;48.206;11.550;2022-08-27T08:35:05;95560.47;;;22.50;72.14
6218;BME280;3142;48.206;11.550;2022-08-27T08:37:32;95560.34;;;22.65;70.49
6218;BME280;3142;48.206;11.550;2022-08-27T08:39:58;95559.72;;;22.73;69.96
6218;BME280;3142;48.206;11.550;2022-08-27T08:42:30;95550.06;;;22.83;69.65
6218;BME280;3142;48.206;11.550;2022-08-27T08:45:00;95560.59;;;22.98;69.23
6218;BME280;3142;48.206;11.550;2022-08-27T08:47:33;95548.25;;;23.07;68.84
6218;BME280;3142;48.206;11.550;2022-08-27T08:50:06;95559.38;;;23.14;68.71
6218;BME280;3142;48.206;11.550;2022-08-27T08:52:42;95557.13;;;23.26;67.95
6218;BME280;3142;48.206;11.550;2022-08-27T08:55:31;95555.34;;;23.41;67.60
6218;BME280;3142;48.206;11.550;2022-08-27T08:58:08;95559.44;;;23.57;66.46
6218;BME280;3142;48.206;11.550;2022-08-27T09:00:37;95555.09;;;23.66;67.03
6218;BME280;3142;48.206;11.550;2022-08-27T09:03:06;95554.69;;;23.78;65.29
6218;BME280;3142;48.206;11.550;2022-08-27T09:05:35;95561.91;;;23.77;65.79
6218;BME280;3142;48.206;11.550;2022-08-27T09:08:06;95549.84;;;23.80;65.28
6218;BME280;3142;48.206;11.550;2022-08-27T09:10:41;95561.78;;;23.87;65.19
6218;BME280;3142;48.206;11.550;2022-08-27T09:13:18;95554.84;;;23.86;65.29
6218;BME280;3142;48.206;11.550;2022-08-27T09:15:45;95555.41;;;23.83;65.39
6218;BME280;3142;48.206;11.550;2022-08-27T09:18:14;95565.16;;;23.74;65.83
6218;BME280;3142;48.206;11.550;2022-08-27T09:20:44;95558.34;;;23.63;65.57
6218;BME280;3142;48.206;11.550;2022-08-27T09:23:17;95567.25;;;23.53;66.64
6218;BME280;3142;48.206;11.550;2022-08-27T09:25:46;95570.56;;;23.45;67.85
6218;BME280;3142;48.206;11.550;2022-08-27T09:28:15;95569.06;;;23.34;67.71
6218;BME280;3142;48.206;11.550;2022-08-27T09:31:04;95565.59;;;23.33;68.30
6218;BME280;3142;48.206;11.550;2022-08-27T09:33:32;95562.06;;;23.38;68.45
6218;BME280;3142;48.206;11.550;2022-08-27T09:36:01;95567.41;;;23.38;67.73
6218;BME280;3142;48.206;11.550;2022-08-27T09:38:30;95562.66;;;23.35;67.29
6218;BME280;3142;48.206;11.550;2022-08-27T09:40:59;95564.03;;;23.27;68.06
6218;BME280;3142;48.206;11.550;2022-08-27T09:43:28;95564.91;;;23.23;68.11
6218;BME280;3142;48.206;11.550;2022-08-27T09:45:58;95556.72;;;23.14;68.36
6218;BME280;3142;48.206;11.550;2022-08-27T09:48:27;95571.69;;;23.10;68.48
6218;BME280;3142;48.206;11.550;2022-08-27T09:50:58;95562.63;;;23.11;68.15
6218;BME280;3142;48.206;11.550;2022-08-27T09:53:27;95560.13;;;23.20;67.39
6218;BME280;3142;48.206;11.550;2022-08-27T09:55:57;95564.28;;;23.31;67.19
6218;BME280;3142;48.206;11.550;2022-08-27T09:58:27;95556.69;;;23.67;66.10
6218;BME280;3142;48.206;11.550;2022-08-27T10:01:00;95549.81;;;24.22;64.79
6218;BME280;3142;48.206;11.550;2022-08-27T10:03:27;95551.19;;;25.36;61.88
6218;BME280;3142;48.206;11.550;2022-08-27T10:05:54;95544.28;;;26.94;58.34
6218;BME280;3142;48.206;11.550;2022-08-27T10:08:25;95546.31;;;28.07;55.19
6218;BME280;3142;48.206;11.550;2022-08-27T10:10:56;95542.34;;;27.48;55.95
6218;BME280;3142;48.206;11.550;2022-08-27T10:13:27;95539.44;;;27.75;53.55
6218;BME280;3142;48.206;11.550;2022-08-27T10:16:13;95542.19;;;27.44;54.75
6218;BME280;3142;48.206;11.550;2022-08-27T10:18:51;95545.19;;;26.67;56.15
6218;BME280;3142;48.206;11.550;2022-08-27T10:21:23;95541.41;;;26.09;57.50
6218;BME280;3142;48.206;11.550;2022-08-27T10:24:03;95536.91;;;25.68;58.24
6218;BME280;3142;48.206;11.550;2022-08-27T10:26:40;95537.09;;;25.45;58.33
6218;BME280;3142;48.206;11.550;2022-08-27T10:29:13;95537.78;;;25.91;56.30
6218;BME280;3142;48.206;11.550;2022-08-27T10:31:56;95542.16;;;26.37;55.53
6218;BME280;3142;48.206;11.550;2022-08-27T10:34:31;95542.78;;;26.20;55.79
6218;BME280;3142;48.206;11.550;2022-08-27T10:37:06;95546.50;;;25.97;55.62
6218;BME280;3142;48.206;11.550;2022-08-27T10:39:50;95545.09;;;25.99;55.29
6218;BME280;3142;48.206;11.550;2022-08-27T10:42:25;95543.13;;;26.27;54.40
6218;BME280;3142;48.206;11.550;2022-08-27T10:45:03;95546.53;;;26.78;54.05
6218;BME280;3142;48.206;11.550;2022-08-27T10:47:43;95539.06;;;27.59;51.74
6218;BME280;3142;48.206;11.550;2022-08-27T10:50:24;95542.31;;;27.87;49.89
6218;BME280;3142;48.206;11.550;2022-08-27T10:52:55;95529.84;;;28.17;48.55
6218;BME280;3142;48.206;11.550;2022-08-27T10:55:29;95531.56;;;27.96;48.59
6218;BME280;3142;48.206;11.550;2022-08-27T10:58:21;95541.50;;;27.69;49.08
6218;BME280;3142;48.206;11.550;2022-08-27T11:00:58;95530.16;;;28.16;49.07
6218;BME280;3142;48.206;11.550;2022-08-27T11:03:29;95527.69;;;28.28;48.38
6218;BME280;3142;48.206;11.550;2022-08-27T11:06:13;95527.84;;;28.31;48.40
6218;BME280;3142;48.206;11.550;2022-08-27T11:08:43;95520.69;;;29.34;46.25
6218;BME280;3142;48.206;11.550;2022-08-27T11:11:22;95518.66;;;30.20;43.94
6218;BME280;3142;48.206;11.550;2022-08-27T11:13:51;95522.31;;;30.78;41.80
6218;BME280;3142;48.206;11.550;2022-08-27T11:16:22;95516.31;;;31.17;40.44
6218;BME280;3142;48.206;11.550;2022-08-27T11:18:52;95517.38;;;31.62;40.58
6218;BME280;3142;48.206;11.550;2022-08-27T11:21:26;95516.16;;;31.96;39.97
6218;BME280;3142;48.206;11.550;2022-08-27T11:24:05;95510.84;;;31.87;39.39
6218;BME280;3142;48.206;11.550;2022-08-27T11:26:37;95511.28;;;31.89;40.86
6218;BME280;3142;48.206;11.550;2022-08-27T11:29:15;95510.13;;;32.15;39.59
6218;BME280;3142;48.206;11.550;2022-08-27T11:31:51;95515.41;;;32.23;39.67
6218;BME280;3142;48.206;11.550;2022-08-27T11:34:24;95510.19;;;32.42;39.41
6218;BME280;3142;48.206;11.550;2022-08-27T11:37:05;95499.81;;;31.68;41.10
6218;BME280;3142;48.206;11.550;2022-08-27T11:39:47;95500.25;;;31.70;40.44
6218;BME280;3142;48.206;11.550;2022-08-27T11:42:25;95503.59;;;31.18;41.42
6218;BME280;3142;48.206;11.550;2022-08-27T11:45:06;95500.69;;;31.35;40.90
6218;BME280;3142;48.206;11.550;2022-08-27T11:47:35;95495.72;;;31.62;41.55
6218;BME280;3142;48.206;11.550;2022-08-27T11:50:05;95495.75;;;31.86;41.25
6218;BME280;3142;48.206;11.550;2022-08-27T11:52:35;95502.72;;;31.26;41.72
6218;BME280;3142;48.206;11.550;2022-08-27T11:55:13;95493.34;;;30.24;44.09
6218;BME280;3142;48.206;11.550;2022-08-27T11:58:07;95493.00;;;29.55;45.73
6218;BME280;3142;48.206;11.550;2022-08-27T12:00:36;95490.16;;;29.13;46.77
6218;BME280;3142;48.206;11.550;2022-08-27T12:03:05;95491.97;;;28.91;47.18
6218;BME280;3142;48.206;11.550;2022-08-27T12:05:39;95474.28;;;28.47;48.46
6218;BME280;3142;48.206;11.550;2022-08-27T12:08:16;95484.72;;;28.23;49.88
6218;BME280;3142;48.206;11.550;2022-08-27T12:10:53;95471.75;;;28.16;50.18
6218;BME280;3142;48.206;11.550;2022-08-27T12:13:28;95474.78;;;28.15;50.04
6218;BME280;3142;48.206;11.550;2022-08-27T12:16:02;95475.88;;;28.05;50.11
6218;BME280;3142;48.206;11.550;2022-08-27T12:18:51;95467.16;;;28.08;50.56
6218;BME280;3142;48.206;11.550;2022-08-27T12:21:29;95468.94;;;28.30;50.24
6218;BME280;3142;48.206;11.550;2022-08-27T12:24:15;95464.16;;;28.53;49.96
6218;BME280;3142;48.206;11.550;2022-08-27T12:26:54;95461.41;;;28.70;49.41
6218;BME280;3142;48.206;11.550;2022-08-27T12:29:35;95465.81;;;28.83;48.73
6218;BME280;3142;48.206;11.550;2022-08-27T12:32:18;95453.44;;;28.91;48.11
6218;BME280;3142;48.206;11.550;2022-08-27T12:34:53;95449.16;;;28.99;47.49
6218;BME280;3142;48.206;11.550;2022-08-27T12:37:23;95447.56;;;29.06;47.00
6218;BME280;3142;48.206;11.550;2022-08-27T12:39:52;95452.19;;;28.97;48.41
6218;BME280;3142;48.206;11.550;2022-08-27T12:42:21;95449.84;;;28.70;48.36
6218;BME280;3142;48.206;11.550;2022-08-27T12:44:54;95441.06;;;28.17;48.96
6218;BME280;3142;48.206;11.550;2022-08-27T12:47:21;95450.53;;;28.06;49.39
6218;BME280;3142;48.206;11.550;2022-08-27T12:49:52;95443.13;;;28.29;49.81
6218;BME280;3142;48.206;11.550;2022-08-27T12:52:41;95451.31;;;28.50;49.71
6218;BME280;3142;48.206;11.550;2022-08-27T12:55:18;95454.50;;;28.43;48.62
6218;BME280;3142;48.206;11.550;2022-08-27T12:57:54;95446.25;;;28.22;48.79
6218;BME280;3142;48.206;11.550;2022-08-27T13:00:32;95447.69;;;28.20;48.47
6218;BME280;3142;48.206;11.550;2022-08-27T13:03:20;95441.69;;;28.14;49.00
6218;BME280;3142;48.206;11.550;2022-08-27T13:05:50;95442.16;;;28.08;49.34
6218;BME280;3142;48.206;11.550;2022-08-27T13:08:24;95444.88;;;27.99;49.83
6218;BME280;3142;48.206;11.550;2022-08-27T13:10:51;95446.28;;;27.96;50.64
6218;BME280;3142;48.206;11.550;2022-08-27T13:13:20;95433.16;;;28.03;51.04
6218;BME280;3142;48.206;11.550;2022-08-27T13:15:50;95428.56;;;28.13;51.71
6218;BME280;3142;48.206;11.550;2022-08-27T13:18:18;95426.63;;;28.22;50.68
6218;BME280;3142;48.206;11.550;2022-08-27T13:20:45;95417.66;;;28.26;50.29
6218;BME280;3142;48.206;11.550;2022-08-27T13:23:13;95418.72;;;28.34;50.27
6218;BME280;3142;48.206;11.550;2022-08-27T13:25:52;95416.34;;;28.41;49.00
6218;BME280;3142;48.206;11.550;2022-08-27T13:28:20;95420.28;;;28.44;49.04